Alpine Airstrip, AK

11:59 AM AKDT on July 26, 2016 (GMT -0800)
Deadhorse Alpine Airstrip | | Change Station

Elev 16 ft 70.34 °N, 150.94 °W | Updated 11 minutes ago

Scattered Clouds
Scattered Clouds
54 °F
Feels Like 54 °F
N
0
Wind Variable Wind from North

Today
High -- | Low -- °F
--% Chance of Precip.
Yesterday
High -- | Low -- °F
Precip. -- in
Pressure 29.76 in
Visibility 10.0 miles
Clouds Few 9000 ft
Scattered Clouds 15000 ft
Scattered Clouds 18000 ft
Dew Point 41 °F
Humidity 62%
Rainfall 0.00 in
Snow Depth Not available.
2:42 AM 1:37 AM
Waning Gibbous, 51% visible
METAR PALP 261948Z 00000KT 10SM FEW090 SCT150 SCT180 12/05 A2976
Pressure 29.76 in
Visibility 10.0 miles
Clouds Few 9000 ft
Scattered Clouds 15000 ft
Scattered Clouds 18000 ft
Dew Point 41 °F
Humidity 62%
Rainfall 0.00 in
Snow Depth Not available.
2:42 AM 1:37 AM
Waning Gibbous, 51% visible
METAR PALP 261948Z 00000KT 10SM FEW090 SCT150 SCT180 12/05 A2976

10-Day Weather Forecast

Almanac

Astronomy

Jul. 26, 2016 Rise Set
Actual Time
Civil Twilight
Nautical Twilight
Astronomical Twilight
Moon
Length of Visible Light
Length of Day
Tomorrow will be .
, % of the Moon is Illuminated

Today's Extremes

State Highs State Lows

Community

WunderPhotos

Upload Photos

1,927,667 photos uploaded!

WunderBlog® & News

Nearby

Air Quality

  Air Quality AQ Index Pollutant
Not available.

Snow Depth

Station Depth Elevation

Earthquake Activity

City Distance Mag. Time & Date
Minimum magnitude displayed is 2.5.

Coastal Water Temperatures

Place Temperature

Stations

Nearby Weather Stations

Station Location Temp. Windchill Dew Point Humidity Wind Precip. Elev Updated Type
                   

Watches & Warnings

There are currently no watches in effect.